Lugovoj, Kazakhstan
Current Conditions -  °F | °C
As of 7:00 AM on Wednesday 28 Jan 2015 (Local Time) from UADD Reporting Station
Haze Haze  
Wind Chill: -8°   Ceiling: 400
Heat Index: -8°   Visibility: 1.8mi
Dew Point: -13°   Wind: 2mph
Humidity: 77%   Direction: NA
Pressure: 30.33"   Gusts: NA
Location:  42.95°N, 72.75°E
Report Text: UADD 280100Z VRB01MPS 3000 BR OVC004 M22/M25 Q1027 NOSIG RMKQBB120 MT OBSC QFE712/0950
Loading
Personal Weather Stations






























Interactive Weather Map New forecast layout! Learn more

10-Day Weather Forecast

Advertisements
Track Severe Weather on mobile